This is the latest recevied weather packets stored in our database for station/object XE2G-31. If no packets are shown the sender has not sent any weather packets the latest 10 day(s).
| Time | Temp. | Humidity | Pressure | Rain* | Wind** | Luminosity | Snow |
|---|---|---|---|---|---|---|---|
| 1777385509 | 26.11° C | 47% | 872 hPa | - | - | - | - |
| 1777384562 | 26.11° C | 47% | 872 hPa | - | - | - | - |
| 1777383615 | 25° C | 51% | 872 hPa | - | - | - | - |
| 1777382668 | 26.67° C | 47% | 872 hPa | - | - | - | - |
| 1777381722 | 26.11° C | 48% | 871 hPa | - | - | - | - |
| 1777380775 | 25° C | 51% | 871 hPa | - | - | - | - |
| 1777379828 | 23.89° C | 59% | 871 hPa | - | - | - | - |
| 1777378881 | 23.33° C | 65% | 871 hPa | - | - | - | - |
| 1777377934 | 23.89° C | 52% | 871 hPa | - | - | - | - |
| 1777376987 | 23.33° C | 57% | 871 hPa | - | - | - | - |
| 1777376041 | 23.33° C | 59% | 871 hPa | - | - | - | - |
| 1777375094 | 23.33° C | 60% | 871 hPa | - | - | - | - |
| 1777374147 | 22.78° C | 66% | 871 hPa | - | - | - | - |
| 1777373200 | 22.78° C | 68% | 871 hPa | - | - | - | - |
| 1777372253 | 22.22° C | 78% | 871 hPa | - | - | - | - |
| 1777371306 | 22.78° C | 77% | 871 hPa | - | - | - | - |
| 1777370360 | 22.22° C | 78% | 871 hPa | - | - | - | - |
| 1777369413 | 22.78° C | 77% | 871 hPa | - | - | - | - |
| 1777368466 | 22.22° C | 80% | 870 hPa | - | - | - | - |
| 1777367519 | 22.22° C | 81% | 871 hPa | - | - | - | - |
| 1777366572 | 22.22° C | 82% | 871 hPa | - | - | - | - |
| 1777365625 | 22.22° C | 80% | 871 hPa | - | - | - | - |
| 1777364679 | 22.22° C | 80% | 871 hPa | - | - | - | - |
| 1777363732 | 22.22° C | 79% | 871 hPa | - | - | - | - |
| 1777362785 | 22.22° C | 78% | 871 hPa | - | - | - | - |
* Rain since midnight (hover to see other rain measurements)
** Current wind speed in m/s (hover to see current wind gust speed)